sensor_id;sensor_type;location;lat;lon;timestamp;temperature;humidity
21801;DHT22;11062;51.164;16.924;2024-03-25T00:00:12;29.10;42.80
21801;DHT22;11062;51.164;16.924;2024-03-25T00:02:39;28.70;42.80
21801;DHT22;11062;51.164;16.924;2024-03-25T00:05:06;29.00;43.40
21801;DHT22;11062;51.164;16.924;2024-03-25T00:07:37;29.10;43.10
21801;DHT22;11062;51.164;16.924;2024-03-25T00:10:03;29.10;42.70
21801;DHT22;11062;51.164;16.924;2024-03-25T00:12:32;28.90;42.60
21801;DHT22;11062;51.164;16.924;2024-03-25T00:14:58;29.20;42.80
21801;DHT22;11062;51.164;16.924;2024-03-25T00:17:24;29.20;42.80
21801;DHT22;11062;51.164;16.924;2024-03-25T00:19:50;29.30;43.20
21801;DHT22;11062;51.164;16.924;2024-03-25T00:22:21;29.30;42.90
21801;DHT22;11062;51.164;16.924;2024-03-25T00:24:48;29.20;43.10
21801;DHT22;11062;51.164;16.924;2024-03-25T00:27:15;29.00;42.90
21801;DHT22;11062;51.164;16.924;2024-03-25T00:29:41;28.90;43.20
21801;DHT22;11062;51.164;16.924;2024-03-25T00:32:07;28.80;43.20
21801;DHT22;11062;51.164;16.924;2024-03-25T00:34:34;29.00;43.40
21801;DHT22;11062;51.164;16.924;2024-03-25T00:37:04;29.10;43.00
21801;DHT22;11062;51.164;16.924;2024-03-25T00:39:30;29.30;42.50
21801;DHT22;11062;51.164;16.924;2024-03-25T00:41:58;29.00;42.30
21801;DHT22;11062;51.164;16.924;2024-03-25T00:44:24;28.70;42.70
21801;DHT22;11062;51.164;16.924;2024-03-25T00:46:50;27.90;43.50
21801;DHT22;11062;51.164;16.924;2024-03-25T00:49:17;27.10;44.60
21801;DHT22;11062;51.164;16.924;2024-03-25T00:51:42;26.00;46.70
21801;DHT22;11062;51.164;16.924;2024-03-25T00:54:11;25.70;47.70
21801;DHT22;11062;51.164;16.924;2024-03-25T00:56:37;25.90;48.40
21801;DHT22;11062;51.164;16.924;2024-03-25T00:59:03;25.70;48.60
21801;DHT22;11062;51.164;16.924;2024-03-25T01:01:30;26.00;49.00
21801;DHT22;11062;51.164;16.924;2024-03-25T01:03:57;26.00;48.80
21801;DHT22;11062;51.164;16.924;2024-03-25T01:06:23;26.60;49.40
21801;DHT22;11062;51.164;16.924;2024-03-25T01:08:49;26.90;48.90
21801;DHT22;11062;51.164;16.924;2024-03-25T01:11:15;27.20;48.30
21801;DHT22;11062;51.164;16.924;2024-03-25T01:13:41;27.50;48.00
21801;DHT22;11062;51.164;16.924;2024-03-25T01:16:08;27.80;48.10
21801;DHT22;11062;51.164;16.924;2024-03-25T01:18:33;28.10;47.70
21801;DHT22;11062;51.164;16.924;2024-03-25T01:20:59;28.10;47.00
21801;DHT22;11062;51.164;16.924;2024-03-25T01:23:25;28.10;47.10
21801;DHT22;11062;51.164;16.924;2024-03-25T01:25:52;28.30;46.70
21801;DHT22;11062;51.164;16.924;2024-03-25T01:28:18;28.40;46.40
21801;DHT22;11062;51.164;16.924;2024-03-25T01:30:43;28.60;46.80
21801;DHT22;11062;51.164;16.924;2024-03-25T01:33:12;29.00;46.40
21801;DHT22;11062;51.164;16.924;2024-03-25T01:35:38;29.40;45.90
21801;DHT22;11062;51.164;16.924;2024-03-25T01:38:04;29.60;45.60
21801;DHT22;11062;51.164;16.924;2024-03-25T01:40:29;29.80;45.50
21801;DHT22;11062;51.164;16.924;2024-03-25T01:42:59;29.90;45.00
21801;DHT22;11062;51.164;16.924;2024-03-25T01:45:26;30.10;45.00
21801;DHT22;11062;51.164;16.924;2024-03-25T01:47:54;30.10;44.90
21801;DHT22;11062;51.164;16.924;2024-03-25T01:50:21;30.10;44.90
21801;DHT22;11062;51.164;16.924;2024-03-25T01:52:47;30.10;45.30
21801;DHT22;11062;51.164;16.924;2024-03-25T01:55:21;30.00;44.70
21801;DHT22;11062;51.164;16.924;2024-03-25T01:57:47;30.10;45.00
21801;DHT22;11062;51.164;16.924;2024-03-25T02:00:15;30.10;44.90
21801;DHT22;11062;51.164;16.924;2024-03-25T02:02:48;30.20;44.70
21801;DHT22;11062;51.164;16.924;2024-03-25T02:05:15;30.30;44.80
21801;DHT22;11062;51.164;16.924;2024-03-25T02:07:43;30.20;44.90
21801;DHT22;11062;51.164;16.924;2024-03-25T02:10:09;30.20;44.90
21801;DHT22;11062;51.164;16.924;2024-03-25T02:12:37;30.30;45.00
21801;DHT22;11062;51.164;16.924;2024-03-25T02:15:04;30.30;44.70
21801;DHT22;11062;51.164;16.924;2024-03-25T02:17:30;30.30;44.50
21801;DHT22;11062;51.164;16.924;2024-03-25T02:19:56;29.70;44.00
21801;DHT22;11062;51.164;16.924;2024-03-25T02:22:22;29.40;44.80
21801;DHT22;11062;51.164;16.924;2024-03-25T02:24:52;29.30;45.30
21801;DHT22;11062;51.164;16.924;2024-03-25T02:27:25;29.30;45.30
21801;DHT22;11062;51.164;16.924;2024-03-25T02:29:51;29.40;45.50
21801;DHT22;11062;51.164;16.924;2024-03-25T02:32:17;29.50;45.40
21801;DHT22;11062;51.164;16.924;2024-03-25T02:34:51;29.40;44.90
21801;DHT22;11062;51.164;16.924;2024-03-25T02:37:18;29.50;45.30
21801;DHT22;11062;51.164;16.924;2024-03-25T02:39:44;29.60;45.60
21801;DHT22;11062;51.164;16.924;2024-03-25T02:42:10;29.50;45.30
21801;DHT22;11062;51.164;16.924;2024-03-25T02:44:36;29.60;45.30
21801;DHT22;11062;51.164;16.924;2024-03-25T02:47:03;29.60;45.40
21801;DHT22;11062;51.164;16.924;2024-03-25T02:49:29;29.60;45.40
21801;DHT22;11062;51.164;16.924;2024-03-25T02:51:55;29.70;45.20
21801;DHT22;11062;51.164;16.924;2024-03-25T02:54:21;29.70;45.20
21801;DHT22;11062;51.164;16.924;2024-03-25T02:56:47;29.70;45.30
21801;DHT22;11062;51.164;16.924;2024-03-25T02:59:13;29.70;45.00
21801;DHT22;11062;51.164;16.924;2024-03-25T03:01:42;29.60;45.70
21801;DHT22;11062;51.164;16.924;2024-03-25T03:04:08;29.60;45.10
21801;DHT22;11062;51.164;16.924;2024-03-25T03:06:38;29.50;45.20
21801;DHT22;11062;51.164;16.924;2024-03-25T03:09:04;29.60;45.20
21801;DHT22;11062;51.164;16.924;2024-03-25T03:11:32;29.60;45.30
21801;DHT22;11062;51.164;16.924;2024-03-25T03:14:00;29.40;44.90
21801;DHT22;11062;51.164;16.924;2024-03-25T03:16:29;29.30;44.70
21801;DHT22;11062;51.164;16.924;2024-03-25T03:18:55;29.00;45.00
21801;DHT22;11062;51.164;16.924;2024-03-25T03:21:21;28.70;45.20
21801;DHT22;11062;51.164;16.924;2024-03-25T03:23:47;28.50;45.40
21801;DHT22;11062;51.164;16.924;2024-03-25T03:26:13;28.60;45.50
21801;DHT22;11062;51.164;16.924;2024-03-25T03:28:40;28.60;45.40
21801;DHT22;11062;51.164;16.924;2024-03-25T03:31:06;28.40;45.50
21801;DHT22;11062;51.164;16.924;2024-03-25T03:33:32;28.70;45.60
21801;DHT22;11062;51.164;16.924;2024-03-25T03:35:58;28.80;45.40
21801;DHT22;11062;51.164;16.924;2024-03-25T03:38:23;29.00;45.30
21801;DHT22;11062;51.164;16.924;2024-03-25T03:41:01;28.80;45.50
21801;DHT22;11062;51.164;16.924;2024-03-25T03:43:30;28.30;44.60
21801;DHT22;11062;51.164;16.924;2024-03-25T03:45:56;28.00;45.60
21801;DHT22;11062;51.164;16.924;2024-03-25T03:48:22;27.90;45.90
21801;DHT22;11062;51.164;16.924;2024-03-25T03:50:47;28.00;46.20
21801;DHT22;11062;51.164;16.924;2024-03-25T03:53:16;27.50;46.00
21801;DHT22;11062;51.164;16.924;2024-03-25T03:55:42;27.60;46.20
21801;DHT22;11062;51.164;16.924;2024-03-25T03:58:08;27.30;46.50
21801;DHT22;11062;51.164;16.924;2024-03-25T04:00:34;27.00;46.40
21801;DHT22;11062;51.164;16.924;2024-03-25T04:03:03;27.20;47.00
21801;DHT22;11062;51.164;16.924;2024-03-25T04:05:30;27.30;46.50
21801;DHT22;11062;51.164;16.924;2024-03-25T04:07:56;27.40;47.20
21801;DHT22;11062;51.164;16.924;2024-03-25T04:10:23;27.60;46.80
21801;DHT22;11062;51.164;16.924;2024-03-25T04:12:49;27.80;46.60
21801;DHT22;11062;51.164;16.924;2024-03-25T04:15:14;27.90;46.30
21801;DHT22;11062;51.164;16.924;2024-03-25T04:17:46;28.30;46.30
21801;DHT22;11062;51.164;16.924;2024-03-25T04:20:14;28.40;46.10
21801;DHT22;11062;51.164;16.924;2024-03-25T04:22:45;28.70;45.90
21801;DHT22;11062;51.164;16.924;2024-03-25T04:25:11;28.90;45.50
21801;DHT22;11062;51.164;16.924;2024-03-25T04:27:41;29.00;45.30
21801;DHT22;11062;51.164;16.924;2024-03-25T04:30:07;29.10;45.30
21801;DHT22;11062;51.164;16.924;2024-03-25T04:32:34;29.10;45.00
21801;DHT22;11062;51.164;16.924;2024-03-25T04:35:01;29.10;45.00
21801;DHT22;11062;51.164;16.924;2024-03-25T04:37:28;29.00;45.10
21801;DHT22;11062;51.164;16.924;2024-03-25T04:39:54;29.00;45.10
21801;DHT22;11062;51.164;16.924;2024-03-25T04:42:21;29.10;44.70
21801;DHT22;11062;51.164;16.924;2024-03-25T04:44:47;29.10;45.10
21801;DHT22;11062;51.164;16.924;2024-03-25T04:47:13;29.10;44.90
21801;DHT22;11062;51.164;16.924;2024-03-25T04:49:41;29.00;44.80
21801;DHT22;11062;51.164;16.924;2024-03-25T04:52:07;29.00;44.90
21801;DHT22;11062;51.164;16.924;2024-03-25T04:54:35;28.60;44.90
21801;DHT22;11062;51.164;16.924;2024-03-25T04:57:04;28.40;45.30
21801;DHT22;11062;51.164;16.924;2024-03-25T04:59:32;28.50;45.20
21801;DHT22;11062;51.164;16.924;2024-03-25T05:01:59;28.30;45.40
21801;DHT22;11062;51.164;16.924;2024-03-25T05:04:25;27.90;45.50
21801;DHT22;11062;51.164;16.924;2024-03-25T05:06:51;27.90;45.90
21801;DHT22;11062;51.164;16.924;2024-03-25T05:09:17;28.10;45.90
21801;DHT22;11062;51.164;16.924;2024-03-25T05:11:47;27.90;45.60
21801;DHT22;11062;51.164;16.924;2024-03-25T05:14:14;28.20;45.90
21801;DHT22;11062;51.164;16.924;2024-03-25T05:16:40;27.90;46.00
21801;DHT22;11062;51.164;16.924;2024-03-25T05:19:06;27.90;45.80
21801;DHT22;11062;51.164;16.924;2024-03-25T05:21:32;27.90;45.80
21801;DHT22;11062;51.164;16.924;2024-03-25T05:23:59;27.90;45.70
21801;DHT22;11062;51.164;16.924;2024-03-25T05:26:25;27.50;46.00
21801;DHT22;11062;51.164;16.924;2024-03-25T05:28:57;27.30;46.50
21801;DHT22;11062;51.164;16.924;2024-03-25T05:31:23;26.80;46.30
21801;DHT22;11062;51.164;16.924;2024-03-25T05:33:49;26.00;47.40
21801;DHT22;11062;51.164;16.924;2024-03-25T05:36:16;25.50;47.90
21801;DHT22;11062;51.164;16.924;2024-03-25T05:38:42;25.20;48.40
21801;DHT22;11062;51.164;16.924;2024-03-25T05:41:09;25.00;48.70
21801;DHT22;11062;51.164;16.924;2024-03-25T05:43:35;25.60;48.90
21801;DHT22;11062;51.164;16.924;2024-03-25T05:46:00;25.90;48.40
21801;DHT22;11062;51.164;16.924;2024-03-25T05:48:27;26.10;48.30
21801;DHT22;11062;51.164;16.924;2024-03-25T05:51:04;26.50;47.80
21801;DHT22;11062;51.164;16.924;2024-03-25T05:53:39;26.80;47.60
21801;DHT22;11062;51.164;16.924;2024-03-25T05:56:05;27.20;47.30
21801;DHT22;11062;51.164;16.924;2024-03-25T05:58:31;27.20;47.10
21801;DHT22;11062;51.164;16.924;2024-03-25T06:00:57;27.50;47.40
21801;DHT22;11062;51.164;16.924;2024-03-25T06:03:26;27.80;47.30
21801;DHT22;11062;51.164;16.924;2024-03-25T06:05:52;27.80;46.80
21801;DHT22;11062;51.164;16.924;2024-03-25T06:08:21;27.80;47.10
21801;DHT22;11062;51.164;16.924;2024-03-25T06:10:50;27.60;47.00
21801;DHT22;11062;51.164;16.924;2024-03-25T06:13:16;27.70;47.20
21801;DHT22;11062;51.164;16.924;2024-03-25T06:15:42;27.40;47.20
21801;DHT22;11062;51.164;16.924;2024-03-25T06:18:08;27.70;47.20
21801;DHT22;11062;51.164;16.924;2024-03-25T06:20:34;27.00;46.50
21801;DHT22;11062;51.164;16.924;2024-03-25T06:22:59;26.40;46.60
21801;DHT22;11062;51.164;16.924;2024-03-25T06:25:25;25.70;47.50
21801;DHT22;11062;51.164;16.924;2024-03-25T06:27:51;25.30;48.10
21801;DHT22;11062;51.164;16.924;2024-03-25T06:30:16;25.40;48.40
21801;DHT22;11062;51.164;16.924;2024-03-25T06:33:01;25.30;48.40
21801;DHT22;11062;51.164;16.924;2024-03-25T06:35:45;25.10;48.70
21801;DHT22;11062;51.164;16.924;2024-03-25T06:38:11;25.20;49.20
21801;DHT22;11062;51.164;16.924;2024-03-25T06:40:37;25.70;49.00
21801;DHT22;11062;51.164;16.924;2024-03-25T06:43:04;26.00;49.10
21801;DHT22;11062;51.164;16.924;2024-03-25T06:45:30;26.30;48.60
21801;DHT22;11062;51.164;16.924;2024-03-25T06:47:56;26.40;47.60
21801;DHT22;11062;51.164;16.924;2024-03-25T06:50:23;26.40;47.90
21801;DHT22;11062;51.164;16.924;2024-03-25T06:52:49;26.00;48.30
21801;DHT22;11062;51.164;16.924;2024-03-25T06:55:15;26.40;48.70
21801;DHT22;11062;51.164;16.924;2024-03-25T06:57:41;26.30;48.30
21801;DHT22;11062;51.164;16.924;2024-03-25T07:00:07;26.00;48.20
21801;DHT22;11062;51.164;16.924;2024-03-25T07:02:39;26.20;49.00
21801;DHT22;11062;51.164;16.924;2024-03-25T07:05:05;26.20;48.50
21801;DHT22;11062;51.164;16.924;2024-03-25T07:07:31;26.30;48.60
21801;DHT22;11062;51.164;16.924;2024-03-25T07:09:57;25.90;48.40
21801;DHT22;11062;51.164;16.924;2024-03-25T07:12:23;26.30;48.90
21801;DHT22;11062;51.164;16.924;2024-03-25T07:14:48;26.60;48.70
21801;DHT22;11062;51.164;16.924;2024-03-25T07:17:14;26.40;48.50
21801;DHT22;11062;51.164;16.924;2024-03-25T07:19:40;26.20;48.20
21801;DHT22;11062;51.164;16.924;2024-03-25T07:22:06;26.50;49.30
21801;DHT22;11062;51.164;16.924;2024-03-25T07:24:32;26.50;48.70
21801;DHT22;11062;51.164;16.924;2024-03-25T07:26:58;26.50;48.70
21801;DHT22;11062;51.164;16.924;2024-03-25T07:29:23;26.70;48.90
21801;DHT22;11062;51.164;16.924;2024-03-25T07:31:49;26.40;48.90
21801;DHT22;11062;51.164;16.924;2024-03-25T07:34:15;26.70;49.10
21801;DHT22;11062;51.164;16.924;2024-03-25T07:36:41;27.00;49.10
21801;DHT22;11062;51.164;16.924;2024-03-25T07:39:07;26.70;48.30
21801;DHT22;11062;51.164;16.924;2024-03-25T07:41:36;26.40;48.20
21801;DHT22;11062;51.164;16.924;2024-03-25T07:44:02;26.10;48.50
21801;DHT22;11062;51.164;16.924;2024-03-25T07:46:28;26.00;49.30
21801;DHT22;11062;51.164;16.924;2024-03-25T07:48:54;25.70;49.20
21801;DHT22;11062;51.164;16.924;2024-03-25T07:51:19;25.50;49.80
21801;DHT22;11062;51.164;16.924;2024-03-25T07:53:45;25.40;50.00
21801;DHT22;11062;51.164;16.924;2024-03-25T07:56:11;25.90;50.40
21801;DHT22;11062;51.164;16.924;2024-03-25T07:58:36;26.30;50.30
21801;DHT22;11062;51.164;16.924;2024-03-25T08:01:02;26.60;49.30
21801;DHT22;11062;51.164;16.924;2024-03-25T08:03:28;26.10;48.90
21801;DHT22;11062;51.164;16.924;2024-03-25T08:05:54;26.30;49.40
21801;DHT22;11062;51.164;16.924;2024-03-25T08:08:19;26.40;49.50
21801;DHT22;11062;51.164;16.924;2024-03-25T08:10:45;26.70;49.10
21801;DHT22;11062;51.164;16.924;2024-03-25T08:13:11;26.90;49.20
21801;DHT22;11062;51.164;16.924;2024-03-25T08:15:37;27.20;49.20
21801;DHT22;11062;51.164;16.924;2024-03-25T08:18:03;27.20;48.80
21801;DHT22;11062;51.164;16.924;2024-03-25T08:20:30;27.40;48.90
21801;DHT22;11062;51.164;16.924;2024-03-25T08:22:56;26.80;47.80
21801;DHT22;11062;51.164;16.924;2024-03-25T08:25:21;26.30;48.70
21801;DHT22;11062;51.164;16.924;2024-03-25T08:27:47;26.20;49.70
21801;DHT22;11062;51.164;16.924;2024-03-25T08:30:16;26.70;49.40
21801;DHT22;11062;51.164;16.924;2024-03-25T08:32:42;26.60;48.80
21801;DHT22;11062;51.164;16.924;2024-03-25T08:35:07;26.50;49.30
21801;DHT22;11062;51.164;16.924;2024-03-25T08:37:34;26.70;49.90
21801;DHT22;11062;51.164;16.924;2024-03-25T08:39:59;26.50;49.30
21801;DHT22;11062;51.164;16.924;2024-03-25T08:42:25;26.80;49.80
21801;DHT22;11062;51.164;16.924;2024-03-25T08:44:51;27.20;49.20
21801;DHT22;11062;51.164;16.924;2024-03-25T08:47:17;27.30;49.20
21801;DHT22;11062;51.164;16.924;2024-03-25T08:49:42;27.60;48.80
21801;DHT22;11062;51.164;16.924;2024-03-25T08:52:08;26.80;48.30
21801;DHT22;11062;51.164;16.924;2024-03-25T08:54:34;26.10;48.30
21801;DHT22;11062;51.164;16.924;2024-03-25T08:57:00;25.50;49.00
21801;DHT22;11062;51.164;16.924;2024-03-25T08:59:26;25.00;49.90
21801;DHT22;11062;51.164;16.924;2024-03-25T09:01:51;25.30;50.20
21801;DHT22;11062;51.164;16.924;2024-03-25T09:04:17;25.00;50.10
21801;DHT22;11062;51.164;16.924;2024-03-25T09:06:43;25.20;50.30
21801;DHT22;11062;51.164;16.924;2024-03-25T09:09:08;25.40;50.30
21801;DHT22;11062;51.164;16.924;2024-03-25T09:11:52;25.50;49.90
21801;DHT22;11062;51.164;16.924;2024-03-25T09:14:19;25.80;50.50
21801;DHT22;11062;51.164;16.924;2024-03-25T09:16:45;26.10;49.90
21801;DHT22;11062;51.164;16.924;2024-03-25T09:19:11;26.30;49.90
21801;DHT22;11062;51.164;16.924;2024-03-25T09:21:36;26.60;49.80
21801;DHT22;11062;51.164;16.924;2024-03-25T09:24:03;27.00;49.50
21801;DHT22;11062;51.164;16.924;2024-03-25T09:26:29;26.80;49.10
21801;DHT22;11062;51.164;16.924;2024-03-25T09:28:55;26.70;49.30
21801;DHT22;11062;51.164;16.924;2024-03-25T09:31:20;26.80;49.50
21801;DHT22;11062;51.164;16.924;2024-03-25T09:33:46;26.60;48.70
21801;DHT22;11062;51.164;16.924;2024-03-25T09:36:12;26.80;49.80
21801;DHT22;11062;51.164;16.924;2024-03-25T09:38:38;26.70;49.20
21801;DHT22;11062;51.164;16.924;2024-03-25T09:41:04;26.30;49.80
21801;DHT22;11062;51.164;16.924;2024-03-25T09:46:05;26.50;50.10
21801;DHT22;11062;51.164;16.924;2024-03-25T09:48:32;26.10;50.00
21801;DHT22;11062;51.164;16.924;2024-03-25T09:50:58;26.40;50.30
21801;DHT22;11062;51.164;16.924;2024-03-25T09:53:24;26.30;50.40
21801;DHT22;11062;51.164;16.924;2024-03-25T09:55:49;26.30;50.00
21801;DHT22;11062;51.164;16.924;2024-03-25T09:58:17;26.40;50.10
21801;DHT22;11062;51.164;16.924;2024-03-25T10:00:45;26.10;49.40
21801;DHT22;11062;51.164;16.924;2024-03-25T10:03:11;26.20;49.90
21801;DHT22;11062;51.164;16.924;2024-03-25T10:05:39;26.40;49.80
21801;DHT22;11062;51.164;16.924;2024-03-25T10:08:05;26.70;49.70
21801;DHT22;11062;51.164;16.924;2024-03-25T10:10:31;26.80;49.40
21801;DHT22;11062;51.164;16.924;2024-03-25T10:12:56;27.10;49.00
21801;DHT22;11062;51.164;16.924;2024-03-25T10:15:22;26.70;49.30
21801;DHT22;11062;51.164;16.924;2024-03-25T10:17:51;26.50;49.80
21801;DHT22;11062;51.164;16.924;2024-03-25T10:20:18;26.30;49.90
21801;DHT22;11062;51.164;16.924;2024-03-25T10:22:44;26.10;50.00
21801;DHT22;11062;51.164;16.924;2024-03-25T10:25:28;26.10;51.20
21801;DHT22;11062;51.164;16.924;2024-03-25T10:28:01;26.50;50.70
21801;DHT22;11062;51.164;16.924;2024-03-25T10:30:28;26.50;50.40
21801;DHT22;11062;51.164;16.924;2024-03-25T10:32:58;26.60;50.20
21801;DHT22;11062;51.164;16.924;2024-03-25T10:35:28;26.80;50.70
21801;DHT22;11062;51.164;16.924;2024-03-25T10:38:02;27.30;50.30
21801;DHT22;11062;51.164;16.924;2024-03-25T10:40:35;27.30;49.50
21801;DHT22;11062;51.164;16.924;2024-03-25T10:43:08;27.50;49.00
21801;DHT22;11062;51.164;16.924;2024-03-25T10:45:37;26.90;48.90
21801;DHT22;11062;51.164;16.924;2024-03-25T10:48:19;27.20;49.40
21801;DHT22;11062;51.164;16.924;2024-03-25T10:50:52;26.30;49.10
21801;DHT22;11062;51.164;16.924;2024-03-25T10:53:20;25.90;49.20
21801;DHT22;11062;51.164;16.924;2024-03-25T10:55:47;25.20;50.30
21801;DHT22;11062;51.164;16.924;2024-03-25T10:58:17;24.70;50.70
21801;DHT22;11062;51.164;16.924;2024-03-25T11:00:47;25.00;51.60
21801;DHT22;11062;51.164;16.924;2024-03-25T11:03:13;25.40;50.70
21801;DHT22;11062;51.164;16.924;2024-03-25T11:05:39;25.80;49.40
21801;DHT22;11062;51.164;16.924;2024-03-25T11:08:16;26.00;49.10
21801;DHT22;11062;51.164;16.924;2024-03-25T11:10:43;26.50;49.40
21801;DHT22;11062;51.164;16.924;2024-03-25T11:13:13;26.70;50.20
21801;DHT22;11062;51.164;16.924;2024-03-25T11:15:43;26.50;50.30
21801;DHT22;11062;51.164;16.924;2024-03-25T11:18:17;26.30;51.20
21801;DHT22;11062;51.164;16.924;2024-03-25T11:20:44;26.00;50.70
21801;DHT22;11062;51.164;16.924;2024-03-25T11:23:11;25.60;50.80
21801;DHT22;11062;51.164;16.924;2024-03-25T11:25:37;25.70;50.80
21801;DHT22;11062;51.164;16.924;2024-03-25T11:28:08;25.70;52.30
21801;DHT22;11062;51.164;16.924;2024-03-25T11:30:34;25.70;52.50
21801;DHT22;11062;51.164;16.924;2024-03-25T11:33:02;26.10;53.30
21801;DHT22;11062;51.164;16.924;2024-03-25T11:35:37;26.40;51.30
21801;DHT22;11062;51.164;16.924;2024-03-25T11:38:04;26.80;50.60
21801;DHT22;11062;51.164;16.924;2024-03-25T11:40:30;27.20;50.00
21801;DHT22;11062;51.164;16.924;2024-03-25T11:42:56;26.10;49.10
21801;DHT22;11062;51.164;16.924;2024-03-25T11:45:23;26.00;49.60
21801;DHT22;11062;51.164;16.924;2024-03-25T11:47:50;26.50;51.20
21801;DHT22;11062;51.164;16.924;2024-03-25T11:50:17;26.40;50.60
21801;DHT22;11062;51.164;16.924;2024-03-25T11:52:44;25.90;50.70
21801;DHT22;11062;51.164;16.924;2024-03-25T11:55:10;25.70;50.90
21801;DHT22;11062;51.164;16.924;2024-03-25T11:57:37;25.70;51.00
21801;DHT22;11062;51.164;16.924;2024-03-25T12:00:07;25.30;50.40
21801;DHT22;11062;51.164;16.924;2024-03-25T12:02:37;25.00;50.80
21801;DHT22;11062;51.164;16.924;2024-03-25T12:05:08;25.40;52.80
21801;DHT22;11062;51.164;16.924;2024-03-25T12:07:34;25.10;52.20
21801;DHT22;11062;51.164;16.924;2024-03-25T12:10:01;24.90;51.90
21801;DHT22;11062;51.164;16.924;2024-03-25T12:12:47;25.20;52.40
21801;DHT22;11062;51.164;16.924;2024-03-25T12:15:13;24.60;51.30
21801;DHT22;11062;51.164;16.924;2024-03-25T12:17:42;25.20;51.50
21801;DHT22;11062;51.164;16.924;2024-03-25T12:20:11;25.50;51.30
21801;DHT22;11062;51.164;16.924;2024-03-25T12:22:38;25.90;50.70
21801;DHT22;11062;51.164;16.924;2024-03-25T12:25:08;25.60;49.70
21801;DHT22;11062;51.164;16.924;2024-03-25T12:27:35;25.90;50.30
21801;DHT22;11062;51.164;16.924;2024-03-25T12:30:03;26.50;50.10
21801;DHT22;11062;51.164;16.924;2024-03-25T12:32:39;26.90;49.40
21801;DHT22;11062;51.164;16.924;2024-03-25T12:35:10;26.40;49.40
21801;DHT22;11062;51.164;16.924;2024-03-25T12:37:37;26.40;49.20
21801;DHT22;11062;51.164;16.924;2024-03-25T12:40:07;26.00;48.30
21801;DHT22;11062;51.164;16.924;2024-03-25T12:42:36;25.90;49.20
21801;DHT22;11062;51.164;16.924;2024-03-25T12:45:03;26.10;48.30
21801;DHT22;11062;51.164;16.924;2024-03-25T12:47:30;26.00;49.10
21801;DHT22;11062;51.164;16.924;2024-03-25T12:49:59;25.90;49.40
21801;DHT22;11062;51.164;16.924;2024-03-25T12:52:25;25.70;48.80
21801;DHT22;11062;51.164;16.924;2024-03-25T12:54:54;25.20;48.90
21801;DHT22;11062;51.164;16.924;2024-03-25T12:57:23;25.60;49.30
21801;DHT22;11062;51.164;16.924;2024-03-25T12:59:49;25.60;49.20
21801;DHT22;11062;51.164;16.924;2024-03-25T13:02:15;26.10;47.90
21801;DHT22;11062;51.164;16.924;2024-03-25T13:04:41;26.30;48.10
21801;DHT22;11062;51.164;16.924;2024-03-25T13:07:08;26.30;48.30
21801;DHT22;11062;51.164;16.924;2024-03-25T13:09:34;26.40;48.10
21801;DHT22;11062;51.164;16.924;2024-03-25T13:12:03;26.60;47.80
21801;DHT22;11062;51.164;16.924;2024-03-25T13:14:29;27.10;48.40
21801;DHT22;11062;51.164;16.924;2024-03-25T13:16:56;27.10;46.80
21801;DHT22;11062;51.164;16.924;2024-03-25T13:19:22;26.90;47.80
21801;DHT22;11062;51.164;16.924;2024-03-25T13:21:55;27.00;46.60
21801;DHT22;11062;51.164;16.924;2024-03-25T13:24:21;26.40;46.90
21801;DHT22;11062;51.164;16.924;2024-03-25T13:26:47;26.80;47.50
21801;DHT22;11062;51.164;16.924;2024-03-25T13:29:16;27.20;47.80
21801;DHT22;11062;51.164;16.924;2024-03-25T13:31:42;27.40;46.20
21801;DHT22;11062;51.164;16.924;2024-03-25T13:34:09;26.80;45.70
21801;DHT22;11062;51.164;16.924;2024-03-25T13:36:35;26.50;47.80
21801;DHT22;11062;51.164;16.924;2024-03-25T13:39:02;26.90;47.80
21801;DHT22;11062;51.164;16.924;2024-03-25T13:41:28;26.90;47.30
21801;DHT22;11062;51.164;16.924;2024-03-25T13:43:54;26.80;47.50
21801;DHT22;11062;51.164;16.924;2024-03-25T13:46:20;27.00;47.30
21801;DHT22;11062;51.164;16.924;2024-03-25T13:48:47;26.60;46.80
21801;DHT22;11062;51.164;16.924;2024-03-25T13:51:13;26.30;47.60
21801;DHT22;11062;51.164;16.924;2024-03-25T13:53:39;26.20;47.20
21801;DHT22;11062;51.164;16.924;2024-03-25T13:56:06;26.30;47.60
21801;DHT22;11062;51.164;16.924;2024-03-25T13:58:32;26.10;48.80
21801;DHT22;11062;51.164;16.924;2024-03-25T14:00:57;25.90;49.40
21801;DHT22;11062;51.164;16.924;2024-03-25T14:03:24;25.20;49.80
21801;DHT22;11062;51.164;16.924;2024-03-25T14:05:53;25.20;50.30
21801;DHT22;11062;51.164;16.924;2024-03-25T14:08:19;25.20;50.40
21801;DHT22;11062;51.164;16.924;2024-03-25T14:10:45;25.40;50.40
21801;DHT22;11062;51.164;16.924;2024-03-25T14:13:11;26.20;51.20
21801;DHT22;11062;51.164;16.924;2024-03-25T14:15:37;26.80;50.40
21801;DHT22;11062;51.164;16.924;2024-03-25T14:18:03;27.20;48.60
21801;DHT22;11062;51.164;16.924;2024-03-25T14:20:30;26.90;47.20
21801;DHT22;11062;51.164;16.924;2024-03-25T14:22:56;26.70;49.20
21801;DHT22;11062;51.164;16.924;2024-03-25T14:25:22;27.10;48.60
21801;DHT22;11062;51.164;16.924;2024-03-25T14:27:48;27.80;47.90
21801;DHT22;11062;51.164;16.924;2024-03-25T14:30:14;28.20;48.90
21801;DHT22;11062;51.164;16.924;2024-03-25T14:32:40;28.40;46.90
21801;DHT22;11062;51.164;16.924;2024-03-25T14:35:06;28.40;46.50
21801;DHT22;11062;51.164;16.924;2024-03-25T14:37:33;28.30;46.80
21801;DHT22;11062;51.164;16.924;2024-03-25T14:39:58;28.40;47.40
21801;DHT22;11062;51.164;16.924;2024-03-25T14:42:25;28.60;46.50
21801;DHT22;11062;51.164;16.924;2024-03-25T14:44:51;28.50;46.80
21801;DHT22;11062;51.164;16.924;2024-03-25T14:47:16;28.50;46.30
21801;DHT22;11062;51.164;16.924;2024-03-25T14:49:42;28.60;46.80
21801;DHT22;11062;51.164;16.924;2024-03-25T14:52:08;28.50;46.60
21801;DHT22;11062;51.164;16.924;2024-03-25T14:54:35;28.40;46.80
21801;DHT22;11062;51.164;16.924;2024-03-25T14:57:01;28.30;46.20
21801;DHT22;11062;51.164;16.924;2024-03-25T14:59:27;28.50;47.10
21801;DHT22;11062;51.164;16.924;2024-03-25T15:01:54;28.80;46.70
21801;DHT22;11062;51.164;16.924;2024-03-25T15:04:19;28.60;45.50
21801;DHT22;11062;51.164;16.924;2024-03-25T15:06:45;28.20;46.10
21801;DHT22;11062;51.164;16.924;2024-03-25T15:09:11;27.30;46.00
21801;DHT22;11062;51.164;16.924;2024-03-25T15:11:38;26.80;45.90
21801;DHT22;11062;51.164;16.924;2024-03-25T15:14:03;26.30;46.70
21801;DHT22;11062;51.164;16.924;2024-03-25T15:16:30;26.20;46.90